createdAt,value
2023-03-20T00:01:34.106Z,26.57
2023-03-20T00:04:04.359Z,26.54
2023-03-20T00:06:34.633Z,26.59
2023-03-20T00:09:06.951Z,26.61
2023-03-20T00:11:45.802Z,26.79
2023-03-20T00:14:18.072Z,26.88
2023-03-20T00:16:50.370Z,26.71
2023-03-20T00:19:30.708Z,26.69
2023-03-20T00:22:01.024Z,26.86
2023-03-20T00:24:31.187Z,26.86
2023-03-20T00:27:01.406Z,26.80
2023-03-20T00:29:33.622Z,26.79
2023-03-20T00:32:03.854Z,26.74
2023-03-20T00:34:34.005Z,26.74
2023-03-20T00:37:04.221Z,26.64
2023-03-20T00:39:35.549Z,26.46
2023-03-20T00:42:08.339Z,26.57
2023-03-20T00:44:52.226Z,26.65
2023-03-20T00:47:25.565Z,26.65
2023-03-20T00:49:57.148Z,26.67
2023-03-20T00:52:27.497Z,26.65
2023-03-20T00:55:18.130Z,26.60
2023-03-20T00:57:51.659Z,26.61
2023-03-20T01:00:25.218Z,26.61
2023-03-20T01:02:58.905Z,26.49
2023-03-20T01:05:30.299Z,26.19
2023-03-20T01:08:00.562Z,26.12
2023-03-20T01:10:34.906Z,26.12
2023-03-20T01:13:05.380Z,26.12
2023-03-20T01:15:36.231Z,25.95
2023-03-20T01:18:06.707Z,25.92
2023-03-20T01:20:36.921Z,25.98
2023-03-20T01:23:07.540Z,26.05
2023-03-20T01:25:38.538Z,26.03
2023-03-20T01:28:21.668Z,25.89
2023-03-20T01:30:52.678Z,25.61
2023-03-20T01:33:27.627Z,25.69
2023-03-20T01:35:58.778Z,25.81
2023-03-20T01:38:30.152Z,25.62
2023-03-20T01:41:23.393Z,25.45
2023-03-20T01:43:53.709Z,25.38
2023-03-20T01:46:31.126Z,25.37
2023-03-20T01:49:21.899Z,25.40
2023-03-20T01:51:54.251Z,25.61
2023-03-20T01:54:39.816Z,25.58
2023-03-20T01:57:16.229Z,25.61
2023-03-20T02:00:13.034Z,25.68
2023-03-20T02:02:48.384Z,25.54
2023-03-20T02:05:53.649Z,25.40
2023-03-20T02:08:31.512Z,25.38
2023-03-20T02:11:07.204Z,25.40
2023-03-20T02:13:38.271Z,25.44
2023-03-20T02:16:17.032Z,25.45
2023-03-20T02:19:16.787Z,25.48
2023-03-20T02:22:33.928Z,25.50
2023-03-20T02:25:52.540Z,25.55
2023-03-20T02:28:42.048Z,25.47
2023-03-20T02:31:28.056Z,25.33
2023-03-20T02:34:24.393Z,25.20
2023-03-20T02:37:27.377Z,25.33
2023-03-20T02:40:13.300Z,25.23
2023-03-20T02:43:16.849Z,24.96
2023-03-20T02:46:07.118Z,24.87
2023-03-20T02:48:58.467Z,24.97
2023-03-20T02:52:03.532Z,24.93
2023-03-20T02:54:37.273Z,25.04
2023-03-20T02:57:16.312Z,25.02
2023-03-20T03:00:11.036Z,24.94
2023-03-20T03:02:59.582Z,24.94
2023-03-20T03:05:44.635Z,25.02
2023-03-20T03:08:19.314Z,25.06
2023-03-20T03:11:08.333Z,24.77
2023-03-20T03:13:44.337Z,24.73
2023-03-20T03:16:22.040Z,24.80
2023-03-20T03:19:02.857Z,24.65
2023-03-20T03:21:35.263Z,24.48
2023-03-20T03:24:05.981Z,24.43
2023-03-20T03:26:41.549Z,24.40
2023-03-20T03:29:18.608Z,24.39
2023-03-20T03:31:50.181Z,24.49
2023-03-20T03:34:23.461Z,24.48
2023-03-20T03:37:10.576Z,24.47
2023-03-20T03:39:54.958Z,24.38
2023-03-20T03:42:32.350Z,24.48
2023-03-20T03:45:12.374Z,24.36
2023-03-20T03:47:47.015Z,24.43
2023-03-20T03:50:27.999Z,24.33
2023-03-20T03:53:06.700Z,24.43
2023-03-20T03:55:43.080Z,24.38
2023-03-20T03:58:39.505Z,24.29
2023-03-20T04:01:13.243Z,24.21
2023-03-20T04:03:59.240Z,24.32
2023-03-20T04:06:30.081Z,24.32
2023-03-20T04:09:00.406Z,24.35
2023-03-20T04:11:30.820Z,24.24
2023-03-20T04:14:00.996Z,24.17
2023-03-20T04:16:31.328Z,24.17
2023-03-20T04:19:01.716Z,24.21
2023-03-20T04:21:32.087Z,24.26
2023-03-20T04:24:02.446Z,24.35
2023-03-20T04:26:32.374Z,24.25
2023-03-20T04:29:04.205Z,24.30
2023-03-20T04:31:52.696Z,24.17
2023-03-20T04:34:46.236Z,24.21
2023-03-20T04:37:39.549Z,24.25
2023-03-20T04:40:11.021Z,24.24
2023-03-20T04:42:44.533Z,24.35
2023-03-20T04:45:14.843Z,24.49
2023-03-20T04:47:46.693Z,24.55
2023-03-20T04:50:17.182Z,24.58
2023-03-20T04:52:47.574Z,24.49
2023-03-20T04:55:18.826Z,24.40
2023-03-20T04:58:08.401Z,24.40
2023-03-20T05:00:38.854Z,24.17
2023-03-20T05:03:09.093Z,23.98
2023-03-20T05:05:39.806Z,23.82
2023-03-20T05:08:10.645Z,23.88
2023-03-20T05:10:42.812Z,23.87
2023-03-20T05:13:41.997Z,24.05
2023-03-20T05:16:35.084Z,24.12
2023-03-20T05:19:40.534Z,24.18
2023-03-20T05:22:11.093Z,24.22
2023-03-20T05:24:56.582Z,24.09
2023-03-20T05:27:51.841Z,23.82
2023-03-20T05:30:36.697Z,23.66
2023-03-20T05:33:24.973Z,23.66
2023-03-20T05:36:11.236Z,23.85
2023-03-20T05:38:59.659Z,24.04
2023-03-20T05:41:47.956Z,24.07
2023-03-20T05:44:56.525Z,24.12
2023-03-20T05:47:44.464Z,24.14
2023-03-20T05:50:32.749Z,24.14
2023-03-20T05:53:25.816Z,24.14
2023-03-20T05:56:13.451Z,24.05
2023-03-20T05:58:43.617Z,24.01
2023-03-20T06:01:31.717Z,23.96
2023-03-20T06:04:22.394Z,24.11
2023-03-20T06:07:07.527Z,24.08
2023-03-20T06:09:38.778Z,24.05
2023-03-20T06:12:13.951Z,23.94
2023-03-20T06:14:44.107Z,23.97
2023-03-20T06:17:14.984Z,24.02
2023-03-20T06:19:49.285Z,23.98
2023-03-20T06:22:19.851Z,23.90
2023-03-20T06:24:50.051Z,23.90
2023-03-20T06:27:21.801Z,23.88
2023-03-20T06:29:52.184Z,23.91
2023-03-20T06:32:30.032Z,23.84
2023-03-20T06:35:02.141Z,23.84
2023-03-20T06:37:32.513Z,23.82
2023-03-20T06:40:09.268Z,23.82
2023-03-20T06:42:40.082Z,23.73
2023-03-20T06:45:12.446Z,23.64
2023-03-20T06:48:03.181Z,23.45
2023-03-20T06:50:33.439Z,23.39
2023-03-20T06:53:03.737Z,23.26
2023-03-20T06:55:34.088Z,23.19
2023-03-20T06:58:04.855Z,23.20
2023-03-20T07:00:36.311Z,23.26
2023-03-20T07:03:08.681Z,23.20
2023-03-20T07:05:41.573Z,23.20
2023-03-20T07:08:14.217Z,23.22
2023-03-20T07:10:44.515Z,23.36
2023-03-20T07:13:15.822Z,23.31
2023-03-20T07:16:02.936Z,23.26
2023-03-20T07:18:39.153Z,23.24
2023-03-20T07:21:10.117Z,23.43
2023-03-20T07:23:40.965Z,23.57
2023-03-20T07:26:11.163Z,23.61
2023-03-20T07:28:41.577Z,23.68
2023-03-20T07:31:25.812Z,23.66
2023-03-20T07:34:25.888Z,23.63
2023-03-20T07:36:57.722Z,23.63
2023-03-20T07:39:28.656Z,23.60
2023-03-20T07:42:21.304Z,23.60
2023-03-20T07:45:01.064Z,23.58
2023-03-20T07:47:32.778Z,23.61
2023-03-20T07:50:08.401Z,23.68
2023-03-20T07:52:38.956Z,23.70
2023-03-20T07:55:09.799Z,23.70
2023-03-20T07:57:40.065Z,23.70
2023-03-20T08:00:11.567Z,23.64
2023-03-20T08:02:41.693Z,23.49
2023-03-20T08:05:11.194Z,23.60
2023-03-20T08:07:41.304Z,23.63
2023-03-20T08:10:12.232Z,23.68
2023-03-20T08:12:42.404Z,23.64
2023-03-20T08:15:12.433Z,23.61
2023-03-20T08:17:47.096Z,23.58
2023-03-20T08:20:18.754Z,23.47
2023-03-20T08:22:50.842Z,23.39
2023-03-20T08:25:21.454Z,23.36
2023-03-20T08:27:52.013Z,23.45
2023-03-20T08:30:22.317Z,23.50
2023-03-20T08:32:52.620Z,23.46
2023-03-20T08:35:33.025Z,23.42
2023-03-20T08:38:04.595Z,23.42
2023-03-20T08:40:34.610Z,23.37
2023-03-20T08:43:05.034Z,23.31
2023-03-20T08:45:35.465Z,23.33
2023-03-20T08:48:06.054Z,23.36
2023-03-20T08:50:36.390Z,23.31
2023-03-20T08:53:07.465Z,23.27
2023-03-20T08:55:38.138Z,23.30
2023-03-20T08:58:08.490Z,23.23
2023-03-20T09:00:38.520Z,23.26
2023-03-20T09:03:08.619Z,23.26
2023-03-20T09:05:39.549Z,23.17
2023-03-20T09:08:10.086Z,23.15
2023-03-20T09:10:41.854Z,23.23
2023-03-20T09:13:26.130Z,23.26
2023-03-20T09:15:58.001Z,23.24
2023-03-20T09:18:28.287Z,23.16
2023-03-20T09:20:58.669Z,22.98
2023-03-20T09:23:28.952Z,23.05
2023-03-20T09:25:59.749Z,23.10
2023-03-20T09:28:29.910Z,23.15
2023-03-20T09:31:01.097Z,23.15
2023-03-20T09:33:31.518Z,23.16
2023-03-20T09:36:01.935Z,23.16
2023-03-20T09:38:32.201Z,23.19
2023-03-20T09:41:02.979Z,23.16
2023-03-20T09:44:10.749Z,23.17
2023-03-20T09:46:50.682Z,23.26
2023-03-20T09:49:40.955Z,23.30
2023-03-20T09:52:26.547Z,23.29
2023-03-20T09:55:00.419Z,23.30
2023-03-20T09:57:42.597Z,23.24
2023-03-20T10:00:29.581Z,23.10
2023-03-20T10:03:09.772Z,23.12
2023-03-20T10:05:55.082Z,23.15
2023-03-20T10:08:31.313Z,23.24
2023-03-20T10:11:07.070Z,23.31
2023-03-20T10:13:46.250Z,23.36
2023-03-20T10:16:19.196Z,23.39
2023-03-20T10:19:02.008Z,23.40
2023-03-20T10:21:47.225Z,23.37
2023-03-20T10:24:33.561Z,23.43
2023-03-20T10:27:12.150Z,23.49
2023-03-20T10:30:28.482Z,23.36
2023-03-20T10:33:27.853Z,23.37
2023-03-20T10:36:33.703Z,23.34
2023-03-20T10:39:40.633Z,23.36
2023-03-20T10:42:20.284Z,23.46
2023-03-20T10:45:13.701Z,23.45
2023-03-20T10:47:45.992Z,23.45
2023-03-20T10:50:21.312Z,23.42
2023-03-20T10:52:55.732Z,23.50
2023-03-20T10:55:39.983Z,23.49
2023-03-20T10:58:28.595Z,23.60
2023-03-20T11:01:00.254Z,23.67
2023-03-20T11:03:33.271Z,23.66
2023-03-20T11:06:10.055Z,23.60
2023-03-20T11:08:45.586Z,23.71
2023-03-20T11:11:15.841Z,23.75
2023-03-20T11:13:46.695Z,23.80
2023-03-20T11:16:34.767Z,23.85
2023-03-20T11:19:15.680Z,23.87
2023-03-20T11:21:58.444Z,23.97
2023-03-20T11:24:47.870Z,24.00
2023-03-20T11:27:21.392Z,24.15
2023-03-20T11:29:53.098Z,24.15
2023-03-20T11:32:33.678Z,24.28
2023-03-20T11:35:19.875Z,24.36
2023-03-20T11:37:53.657Z,24.47
2023-03-20T11:40:26.214Z,24.60
2023-03-20T11:43:05.353Z,24.70
2023-03-20T11:45:42.572Z,24.80
2023-03-20T11:48:21.592Z,24.91
2023-03-20T11:51:21.581Z,24.99
2023-03-20T11:53:58.602Z,25.06
2023-03-20T11:56:34.399Z,25.14
2023-03-20T11:59:21.326Z,25.27
2023-03-20T12:01:54.813Z,25.38
2023-03-20T12:04:38.823Z,25.50
2023-03-20T12:07:16.070Z,25.60
2023-03-20T12:09:57.907Z,25.62
2023-03-20T12:12:56.531Z,25.77
2023-03-20T12:16:06.531Z,25.91
2023-03-20T12:18:39.805Z,25.96
2023-03-20T12:21:18.852Z,26.10
2023-03-20T12:24:07.024Z,26.20
2023-03-20T12:26:44.671Z,26.26
2023-03-20T12:29:40.472Z,26.40
2023-03-20T12:32:23.562Z,26.49
2023-03-20T12:35:01.408Z,26.60
2023-03-20T12:37:32.789Z,26.69
2023-03-20T12:40:06.035Z,26.81
2023-03-20T12:42:47.166Z,26.94
2023-03-20T12:45:32.407Z,27.05
2023-03-20T12:48:19.453Z,27.20
2023-03-20T12:50:57.021Z,27.42
2023-03-20T12:53:32.959Z,27.66
2023-03-20T12:56:24.720Z,27.85
2023-03-20T12:58:54.897Z,28.07
2023-03-20T13:01:33.359Z,28.27
2023-03-20T13:04:27.315Z,28.48
2023-03-20T13:07:02.787Z,28.53
2023-03-20T13:09:43.643Z,28.64
2023-03-20T13:12:36.689Z,28.76
2023-03-20T13:15:36.596Z,28.90
2023-03-20T13:18:24.500Z,29.06
2023-03-20T13:20:57.907Z,29.19
2023-03-20T13:23:32.062Z,29.46
2023-03-20T13:26:18.477Z,29.54
2023-03-20T13:28:48.663Z,29.57
2023-03-20T13:31:55.047Z,29.70
2023-03-20T13:34:32.909Z,29.87
2023-03-20T13:37:22.244Z,30.00
2023-03-20T13:40:07.423Z,30.15
2023-03-20T13:43:01.911Z,30.59
2023-03-20T13:45:42.420Z,30.74
2023-03-20T13:48:39.490Z,30.97
2023-03-20T13:51:13.132Z,31.12
2023-03-20T13:53:59.226Z,31.22
2023-03-20T13:56:44.140Z,31.34
2023-03-20T13:59:34.970Z,31.41
2023-03-20T14:02:13.916Z,31.51
2023-03-20T14:04:44.386Z,31.70
2023-03-20T14:07:45.956Z,31.89
2023-03-20T14:10:25.444Z,32.09
2023-03-20T14:13:01.145Z,32.16
2023-03-20T14:15:37.026Z,32.24
2023-03-20T14:18:15.114Z,32.46
2023-03-20T14:20:52.639Z,32.51
2023-03-20T14:23:56.780Z,32.66
2023-03-20T14:26:33.495Z,32.86
2023-03-20T14:29:24.011Z,33.06
2023-03-20T14:31:54.173Z,33.14
2023-03-20T14:34:29.137Z,33.28
2023-03-20T14:37:09.712Z,33.35
2023-03-20T14:39:50.152Z,33.44
2023-03-20T14:42:40.192Z,33.21
2023-03-20T14:45:13.421Z,33.31
2023-03-20T14:47:43.443Z,33.41
2023-03-20T14:50:34.504Z,33.50
2023-03-20T14:53:21.319Z,33.68
2023-03-20T14:55:57.333Z,33.94
2023-03-20T14:58:47.963Z,34.31
2023-03-20T15:01:22.895Z,34.23
2023-03-20T15:03:59.906Z,34.32
2023-03-20T15:06:31.215Z,34.22
2023-03-20T15:09:09.633Z,34.47
2023-03-20T15:11:40.400Z,34.79
2023-03-20T15:14:12.395Z,34.86
2023-03-20T15:16:42.608Z,34.87
2023-03-20T15:19:21.901Z,35.18
2023-03-20T15:21:52.356Z,34.98
2023-03-20T15:24:27.261Z,34.52
2023-03-20T15:27:02.241Z,34.61
2023-03-20T15:29:36.333Z,34.16
2023-03-20T15:32:14.505Z,34.43
2023-03-20T15:34:46.056Z,34.82
2023-03-20T15:37:23.036Z,35.15
2023-03-20T15:40:01.416Z,34.94
2023-03-20T15:42:33.394Z,35.27
2023-03-20T15:45:03.506Z,35.62
2023-03-20T15:47:34.237Z,35.88
2023-03-20T15:50:05.781Z,35.95
2023-03-20T15:52:54.145Z,36.37
2023-03-20T15:55:25.920Z,36.32
2023-03-20T15:58:00.284Z,36.39
2023-03-20T16:00:40.996Z,36.46
2023-03-20T16:03:16.273Z,36.44
2023-03-20T16:05:48.710Z,36.35
2023-03-20T16:08:33.314Z,36.47
2023-03-20T16:11:11.628Z,36.48
2023-03-20T16:13:45.076Z,36.29
2023-03-20T16:16:24.910Z,35.86
2023-03-20T16:18:55.580Z,35.49
2023-03-20T16:21:37.724Z,35.54
2023-03-20T16:24:12.732Z,36.17
2023-03-20T16:26:46.619Z,36.16
2023-03-20T16:29:17.486Z,36.13
2023-03-20T16:31:54.182Z,36.00
2023-03-20T16:34:28.222Z,35.90
2023-03-20T16:37:01.325Z,35.95
2023-03-20T16:39:32.850Z,35.86
2023-03-20T16:42:29.482Z,36.23
2023-03-20T16:45:00.579Z,36.57
2023-03-20T16:47:39.558Z,36.44
2023-03-20T16:50:22.259Z,36.73
2023-03-20T16:52:59.963Z,36.63
2023-03-20T16:55:32.816Z,36.19
2023-03-20T16:58:07.503Z,36.67
2023-03-20T17:00:52.280Z,37.02
2023-03-20T17:03:31.627Z,37.35
2023-03-20T17:06:08.070Z,37.29
2023-03-20T17:08:42.575Z,37.46
2023-03-20T17:11:18.662Z,37.25
2023-03-20T17:13:50.064Z,36.90
2023-03-20T17:16:23.032Z,36.87
2023-03-20T17:19:20.111Z,37.08
2023-03-20T17:21:50.420Z,36.51
2023-03-20T17:24:20.646Z,36.17
2023-03-20T17:26:57.240Z,35.86
2023-03-20T17:29:27.366Z,35.82
2023-03-20T17:31:57.407Z,35.85
2023-03-20T17:34:27.773Z,35.35
2023-03-20T17:37:00.977Z,35.14
2023-03-20T17:39:31.513Z,34.71
2023-03-20T17:42:01.662Z,34.56
2023-03-20T17:44:31.611Z,34.35
2023-03-20T17:47:03.574Z,33.82
2023-03-20T17:49:34.053Z,33.13
2023-03-20T17:52:06.096Z,31.47
2023-03-20T17:54:36.316Z,30.89
2023-03-20T17:57:07.667Z,29.81
2023-03-20T17:59:37.721Z,29.45
2023-03-20T18:02:08.508Z,29.11
2023-03-20T18:04:38.662Z,28.23
2023-03-20T18:07:10.304Z,27.85
2023-03-20T18:09:42.218Z,27.53
2023-03-20T18:12:15.791Z,27.31
2023-03-20T18:14:48.134Z,26.47
2023-03-20T18:17:18.412Z,25.45
2023-03-20T18:19:48.639Z,23.47
2023-03-20T18:22:18.797Z,22.78
2023-03-20T18:24:48.178Z,22.49
2023-03-20T18:27:18.315Z,22.62
2023-03-20T18:29:47.737Z,22.58
2023-03-20T18:32:17.603Z,22.67
2023-03-20T18:34:48.696Z,22.76
2023-03-20T18:37:21.011Z,22.85
2023-03-20T18:39:52.178Z,23.00
2023-03-20T18:42:22.482Z,23.06
2023-03-20T18:44:52.632Z,23.16
2023-03-20T18:47:22.773Z,23.39
2023-03-20T18:49:52.734Z,23.50
2023-03-20T18:52:22.800Z,23.60
2023-03-20T18:54:53.757Z,23.90
2023-03-20T18:57:24.046Z,24.19
2023-03-20T18:59:54.249Z,23.80
2023-03-20T19:02:24.600Z,24.15
2023-03-20T19:04:54.770Z,24.29
2023-03-20T19:07:24.641Z,24.42
2023-03-20T19:09:54.412Z,24.29
2023-03-20T19:12:24.229Z,24.09
2023-03-20T19:14:53.822Z,24.49
2023-03-20T19:17:23.564Z,24.53
2023-03-20T19:19:53.116Z,24.82
2023-03-20T19:22:29.578Z,25.04
2023-03-20T19:25:00.044Z,25.06
2023-03-20T19:27:30.366Z,25.03
2023-03-20T19:30:01.606Z,24.79
2023-03-20T19:32:31.706Z,24.40
2023-03-20T19:37:52.115Z,23.77
2023-03-20T19:40:25.516Z,23.84
2023-03-20T19:43:02.384Z,23.81
2023-03-20T19:45:35.970Z,24.02
2023-03-20T19:48:23.745Z,24.01
2023-03-20T19:50:54.641Z,23.78
2023-03-20T19:53:29.095Z,23.87
2023-03-20T19:55:59.286Z,24.08
2023-03-20T19:58:29.676Z,24.36
2023-03-20T20:01:00.250Z,24.12
2023-03-20T20:03:30.955Z,23.88
2023-03-20T20:06:03.600Z,24.02
2023-03-20T20:08:46.974Z,24.35
2023-03-20T20:11:22.828Z,24.40
2023-03-20T20:14:10.057Z,24.47
2023-03-20T20:16:43.859Z,24.47
2023-03-20T20:19:14.480Z,24.60
2023-03-20T20:22:25.232Z,24.60
2023-03-20T20:24:35.373Z,24.49
2023-03-20T20:27:17.063Z,24.38
2023-03-20T20:29:51.540Z,24.36
2023-03-20T20:32:24.546Z,24.45
2023-03-20T20:38:36.681Z,24.65
2023-03-20T20:40:36.190Z,24.63
2023-03-20T20:43:10.538Z,24.42
2023-03-20T20:45:41.189Z,24.32
2023-03-20T20:48:11.498Z,24.21
2023-03-20T20:50:44.637Z,24.17
2023-03-20T20:53:14.836Z,24.17
2023-03-20T20:55:44.709Z,24.18
2023-03-20T20:58:14.649Z,24.35
2023-03-20T21:00:52.512Z,24.52
2023-03-20T21:03:24.805Z,24.49
2023-03-20T21:05:54.757Z,24.42
2023-03-20T21:08:24.685Z,24.40
2023-03-20T21:10:54.608Z,24.39
2023-03-20T21:13:24.514Z,24.32
2023-03-20T21:16:01.558Z,24.07
2023-03-20T21:18:32.171Z,24.24
2023-03-20T21:21:20.131Z,24.38
2023-03-20T21:23:51.268Z,24.40
2023-03-20T21:26:21.458Z,24.52
2023-03-20T21:28:51.076Z,24.55
2023-03-20T21:31:29.564Z,24.45
2023-03-20T21:34:01.213Z,24.28
2023-03-20T21:36:31.662Z,24.24
2023-03-20T21:39:08.103Z,24.19
2023-03-20T21:41:40.086Z,24.07
2023-03-20T21:44:16.690Z,24.15
2023-03-20T21:53:06.805Z,24.15
2023-03-20T21:56:17.035Z,24.12
2023-03-20T21:59:02.948Z,24.02
2023-03-20T22:01:39.587Z,23.75
2023-03-20T22:15:54.206Z,23.98
2023-03-20T22:18:50.515Z,23.85
2023-03-20T22:27:38.615Z,24.19
2023-03-20T22:36:02.714Z,24.18
2023-03-20T22:38:59.787Z,24.08
2023-03-20T22:46:45.392Z,24.35
2023-03-20T22:49:16.298Z,24.42
2023-03-20T22:52:04.621Z,24.40
2023-03-20T22:54:36.818Z,24.08
2023-03-20T22:57:07.166Z,24.07
2023-03-20T22:59:37.515Z,24.14
2023-03-20T23:02:07.966Z,24.17
2023-03-20T23:04:38.436Z,24.18
2023-03-20T23:07:08.561Z,24.17
2023-03-20T23:09:38.862Z,24.26
2023-03-20T23:12:09.222Z,24.04
2023-03-20T23:14:45.775Z,23.97
2023-03-20T23:17:16.581Z,24.05
2023-03-20T23:19:51.891Z,24.05
2023-03-20T23:22:24.102Z,23.93
2023-03-20T23:24:55.282Z,23.87
2023-03-20T23:27:27.397Z,24.04
2023-03-20T23:29:57.390Z,24.11
2023-03-20T23:32:27.508Z,24.15
2023-03-20T23:34:57.924Z,24.22
2023-03-20T23:37:28.564Z,24.26
2023-03-20T23:39:58.647Z,23.96
2023-03-20T23:42:30.918Z,23.98
2023-03-20T23:45:13.225Z,24.19
2023-03-20T23:47:50.663Z,24.17
2023-03-20T23:50:31.897Z,24.28
2023-03-20T23:53:19.610Z,24.35
2023-03-20T23:55:56.421Z,24.33
2023-03-20T23:58:28.623Z,24.36
